createdAt,value
2023-07-18T00:01:25.987Z,91.30
2023-07-18T00:03:53.055Z,91.30
2023-07-18T00:06:20.691Z,92.60
2023-07-18T00:08:47.513Z,92.30
2023-07-18T00:11:14.398Z,92.40
2023-07-18T00:13:41.476Z,92.90
2023-07-18T00:16:09.895Z,93.40
2023-07-18T00:18:36.866Z,94.10
2023-07-18T00:21:03.849Z,94.10
2023-07-18T00:23:31.573Z,93.90
2023-07-18T00:25:58.462Z,94.00
2023-07-18T00:28:25.495Z,93.80
2023-07-18T00:30:52.538Z,94.20
2023-07-18T00:33:19.368Z,94.50
2023-07-18T00:35:46.309Z,95.40
2023-07-18T00:38:13.455Z,95.60
2023-07-18T00:40:42.967Z,96.50
2023-07-18T00:43:16.901Z,96.70
2023-07-18T00:45:45.698Z,97.30
2023-07-18T00:48:12.841Z,97.00
2023-07-18T00:50:39.812Z,96.60
2023-07-18T00:53:06.917Z,96.40
2023-07-18T00:55:33.972Z,97.00
2023-07-18T00:58:02.929Z,97.60
2023-07-18T01:00:29.901Z,98.20
2023-07-18T01:02:56.818Z,98.60
2023-07-18T01:05:24.061Z,98.90
2023-07-18T01:07:51.457Z,99.00
2023-07-18T01:10:25.446Z,99.00
2023-07-18T01:12:56.480Z,98.80
2023-07-18T01:15:23.773Z,97.70
2023-07-18T01:17:51.532Z,97.40
2023-07-18T01:20:20.884Z,97.60
2023-07-18T01:22:50.313Z,98.30
2023-07-18T01:25:17.900Z,98.60
2023-07-18T01:27:45.593Z,99.80
2023-07-18T01:30:13.124Z,99.90
2023-07-18T01:32:40.449Z,99.90
2023-07-18T01:35:09.336Z,99.90
2023-07-18T01:37:39.745Z,99.90
2023-07-18T01:40:09.909Z,99.90
2023-07-18T01:42:36.693Z,99.90
2023-07-18T01:45:04.587Z,99.90
2023-07-18T01:47:35.327Z,99.90
2023-07-18T01:50:04.831Z,99.90
2023-07-18T01:52:32.764Z,99.90
2023-07-18T01:55:00.767Z,99.90
2023-07-18T01:57:31.627Z,99.90
2023-07-18T02:00:01.882Z,99.90
2023-07-18T02:02:29.418Z,99.90
2023-07-18T02:04:59.886Z,99.90
2023-07-18T02:07:29.724Z,99.90
2023-07-18T02:09:56.644Z,99.90
2023-07-18T02:12:23.410Z,99.90
2023-07-18T02:14:50.254Z,99.90
2023-07-18T02:17:17.076Z,99.90
2023-07-18T02:19:43.971Z,99.90
2023-07-18T02:22:10.843Z,99.90
2023-07-18T02:24:38.988Z,99.90
2023-07-18T02:27:06.130Z,99.90
2023-07-18T02:29:33.150Z,99.90
2023-07-18T02:32:00.208Z,99.90
2023-07-18T02:34:27.154Z,99.90
2023-07-18T02:36:55.070Z,99.90
2023-07-18T02:39:21.903Z,99.90
2023-07-18T02:41:48.701Z,99.90
2023-07-18T02:44:15.519Z,99.90
2023-07-18T02:46:42.330Z,99.90
2023-07-18T02:49:09.130Z,99.90
2023-07-18T02:51:36.104Z,99.90
2023-07-18T02:54:03.930Z,99.90
2023-07-18T02:56:31.167Z,99.90
2023-07-18T02:58:58.131Z,99.90
2023-07-18T03:01:25.876Z,99.90
2023-07-18T03:03:52.695Z,99.90
2023-07-18T03:06:19.751Z,99.90
2023-07-18T03:08:46.636Z,99.90
2023-07-18T03:11:13.454Z,99.90
2023-07-18T03:13:40.275Z,99.90
2023-07-18T03:16:09.137Z,99.90
2023-07-18T03:18:36.703Z,99.90
2023-07-18T03:21:04.823Z,99.90
2023-07-18T03:23:31.845Z,99.90
2023-07-18T03:25:58.678Z,99.90
2023-07-18T03:28:25.477Z,99.90
2023-07-18T03:30:52.233Z,99.90
2023-07-18T03:33:18.968Z,99.90
2023-07-18T03:35:45.815Z,99.90
2023-07-18T03:38:12.745Z,99.90
2023-07-18T03:40:39.800Z,99.90
2023-07-18T03:43:06.660Z,99.90
2023-07-18T03:45:34.462Z,99.90
2023-07-18T03:48:01.652Z,99.90
2023-07-18T03:50:28.503Z,99.90
2023-07-18T03:52:55.306Z,99.90
2023-07-18T03:55:22.286Z,99.90
2023-07-18T03:57:49.231Z,99.90
2023-07-18T04:00:19.249Z,99.90
2023-07-18T04:02:47.851Z,99.90
2023-07-18T04:05:16.163Z,99.90
2023-07-18T04:07:45.068Z,99.90
2023-07-18T04:10:13.022Z,99.90
2023-07-18T04:12:43.193Z,99.90
2023-07-18T04:15:12.889Z,99.90
2023-07-18T04:17:42.518Z,99.90
2023-07-18T04:20:09.868Z,99.90
2023-07-18T04:22:36.781Z,99.90
2023-07-18T04:25:03.831Z,99.90
2023-07-18T04:27:30.752Z,99.90
2023-07-18T04:29:57.821Z,99.90
2023-07-18T04:32:26.068Z,99.90
2023-07-18T04:34:53.004Z,99.90
2023-07-18T04:37:20.021Z,99.90
2023-07-18T04:39:46.790Z,99.90
2023-07-18T04:42:13.721Z,99.90
2023-07-18T04:44:40.542Z,99.90
2023-07-18T04:47:09.747Z,99.90
2023-07-18T04:49:37.224Z,99.90
2023-07-18T04:52:04.831Z,99.90
2023-07-18T04:54:31.896Z,99.90
2023-07-18T04:56:58.657Z,99.90
2023-07-18T04:59:25.558Z,99.90
2023-07-18T05:01:55.690Z,99.90
2023-07-18T05:04:22.767Z,99.90
2023-07-18T05:06:52.710Z,99.90
2023-07-18T05:09:19.465Z,99.90
2023-07-18T05:11:47.749Z,99.90
2023-07-18T05:14:14.642Z,99.90
2023-07-18T05:16:41.420Z,99.90
2023-07-18T05:19:08.373Z,97.80
2023-07-18T05:21:35.267Z,95.80
2023-07-18T05:24:02.124Z,96.70
2023-07-18T05:26:28.995Z,97.70
2023-07-18T05:28:55.832Z,98.50
2023-07-18T05:31:23.256Z,98.70
2023-07-18T05:33:51.534Z,98.80
2023-07-18T05:36:18.421Z,99.30
2023-07-18T05:38:46.571Z,99.00
2023-07-18T05:41:13.543Z,98.90
2023-07-18T05:43:40.445Z,98.90
2023-07-18T05:46:07.218Z,98.20
2023-07-18T05:48:34.093Z,98.00
2023-07-18T05:51:01.886Z,97.60
2023-07-18T05:53:28.744Z,96.80
2023-07-18T05:55:55.745Z,96.50
2023-07-18T05:58:22.562Z,97.10
2023-07-18T06:00:49.510Z,96.90
2023-07-18T06:03:16.637Z,97.50
2023-07-18T06:05:43.588Z,97.60
2023-07-18T06:08:11.424Z,97.40
2023-07-18T06:10:38.394Z,97.20
2023-07-18T06:13:05.095Z,97.00
2023-07-18T06:15:31.899Z,96.70
2023-07-18T06:17:58.830Z,95.50
2023-07-18T06:20:25.665Z,95.90
2023-07-18T06:22:53.600Z,95.90
2023-07-18T06:25:20.580Z,96.00
2023-07-18T06:27:47.509Z,95.90
2023-07-18T06:30:14.656Z,95.90
2023-07-18T06:32:41.586Z,94.70
2023-07-18T06:35:23.077Z,94.10
2023-07-18T06:37:51.235Z,94.90
2023-07-18T06:40:18.507Z,93.90
2023-07-18T06:42:45.327Z,91.50
2023-07-18T06:45:13.558Z,91.40
2023-07-18T06:47:40.456Z,91.60
2023-07-18T06:50:07.716Z,91.00
2023-07-18T06:52:36.773Z,91.30
2023-07-18T06:55:05.182Z,90.50
2023-07-18T06:57:31.902Z,90.60
2023-07-18T06:59:58.754Z,90.00
2023-07-18T07:02:25.545Z,89.60
2023-07-18T07:04:52.418Z,88.70
2023-07-18T07:07:19.263Z,87.80
2023-07-18T07:09:46.199Z,87.60
2023-07-18T07:12:26.222Z,86.80
2023-07-18T07:14:57.771Z,84.30
2023-07-18T07:17:25.001Z,83.20
2023-07-18T07:19:51.859Z,83.30
2023-07-18T07:22:18.663Z,80.20
2023-07-18T07:24:47.973Z,78.80
2023-07-18T07:27:14.777Z,79.40
2023-07-18T07:29:41.623Z,79.60
2023-07-18T07:32:08.914Z,78.90
2023-07-18T07:34:37.267Z,78.40
2023-07-18T07:37:05.390Z,76.90
2023-07-18T07:39:32.125Z,77.50
2023-07-18T07:41:58.922Z,77.70
2023-07-18T07:44:26.062Z,76.10
2023-07-18T07:46:52.955Z,76.50
2023-07-18T07:49:21.690Z,76.90
2023-07-18T07:51:48.649Z,75.50
2023-07-18T07:54:15.385Z,75.80
2023-07-18T07:56:42.129Z,74.40
2023-07-18T07:59:11.799Z,74.70
2023-07-18T08:01:39.562Z,74.20
2023-07-18T08:04:06.999Z,75.60
2023-07-18T08:06:34.005Z,73.80
2023-07-18T08:09:03.559Z,73.70
2023-07-18T08:11:30.428Z,74.60
2023-07-18T08:13:57.710Z,74.10
2023-07-18T08:16:24.859Z,74.00
2023-07-18T08:18:51.791Z,75.10
2023-07-18T08:21:20.098Z,74.50
2023-07-18T08:23:47.392Z,74.50
2023-07-18T08:26:14.276Z,74.20
2023-07-18T08:28:41.212Z,73.10
2023-07-18T08:31:08.118Z,72.10
2023-07-18T08:33:34.970Z,73.40
2023-07-18T08:36:01.756Z,73.40
2023-07-18T08:38:28.580Z,72.00
2023-07-18T08:40:55.456Z,71.60
2023-07-18T08:43:42.732Z,71.50
2023-07-18T08:46:10.357Z,72.20
2023-07-18T08:48:38.362Z,70.70
2023-07-18T08:51:05.143Z,71.90
2023-07-18T08:53:31.935Z,71.30
2023-07-18T08:55:59.084Z,71.50
2023-07-18T08:58:27.223Z,71.00
2023-07-18T09:00:54.357Z,70.80
2023-07-18T09:03:21.276Z,70.70
2023-07-18T09:05:48.273Z,69.90
2023-07-18T09:08:15.032Z,70.00
2023-07-18T09:10:41.854Z,70.70
2023-07-18T09:13:10.147Z,70.00
2023-07-18T09:15:38.533Z,70.60
2023-07-18T09:18:08.639Z,69.00
2023-07-18T09:20:35.693Z,69.50
2023-07-18T09:23:04.999Z,69.40
2023-07-18T09:25:32.382Z,69.10
2023-07-18T09:27:59.528Z,68.30
2023-07-18T09:30:33.914Z,68.10
2023-07-18T09:33:04.125Z,67.60
2023-07-18T09:35:31.083Z,66.40
2023-07-18T09:37:58.685Z,65.60
2023-07-18T09:40:26.021Z,64.80
2023-07-18T09:42:55.897Z,63.10
2023-07-18T09:45:24.424Z,62.60
2023-07-18T09:47:53.660Z,62.00
2023-07-18T09:50:20.422Z,61.40
2023-07-18T09:52:50.525Z,61.00
2023-07-18T09:55:25.775Z,59.60
2023-07-18T09:57:55.622Z,57.60
2023-07-18T10:00:24.500Z,57.60
2023-07-18T10:02:54.106Z,57.20
2023-07-18T10:05:21.691Z,56.80
2023-07-18T10:07:49.284Z,56.00
2023-07-18T10:10:16.386Z,57.80
2023-07-18T10:13:00.060Z,57.20
2023-07-18T10:15:28.200Z,55.90
2023-07-18T10:17:55.344Z,56.50
2023-07-18T10:20:32.712Z,55.60
2023-07-18T10:23:01.389Z,56.00
2023-07-18T10:25:30.969Z,55.60
2023-07-18T10:27:59.656Z,55.00
2023-07-18T10:30:38.623Z,56.00
2023-07-18T10:33:09.820Z,54.30
2023-07-18T10:35:42.589Z,56.10
2023-07-18T10:38:09.604Z,54.50
2023-07-18T10:40:45.432Z,54.60
2023-07-18T10:43:21.294Z,54.70
2023-07-18T10:45:48.251Z,56.80
2023-07-18T10:48:17.831Z,57.10
2023-07-18T10:50:46.632Z,56.00
2023-07-18T10:53:15.933Z,55.90
2023-07-18T10:55:43.033Z,57.10
2023-07-18T10:58:12.056Z,56.70
2023-07-18T11:00:41.599Z,55.40
2023-07-18T11:03:36.445Z,56.50
2023-07-18T11:06:08.798Z,56.50
2023-07-18T11:08:35.545Z,56.10
2023-07-18T11:11:04.646Z,54.00
2023-07-18T11:13:37.205Z,53.40
2023-07-18T11:16:09.585Z,55.30
2023-07-18T11:18:37.878Z,55.20
2023-07-18T11:21:09.206Z,55.00
2023-07-18T11:23:37.378Z,54.90
2023-07-18T11:26:15.656Z,54.80
2023-07-18T11:28:44.831Z,54.70
2023-07-18T11:33:56.044Z,54.20
2023-07-18T11:36:23.693Z,54.00
2023-07-18T11:38:51.614Z,54.00
2023-07-18T11:41:41.798Z,53.90
2023-07-18T11:44:09.825Z,53.60
2023-07-18T11:46:46.015Z,53.80
2023-07-18T11:49:13.945Z,52.50
2023-07-18T11:51:42.107Z,51.90
2023-07-18T11:54:09.188Z,51.70
2023-07-18T11:56:36.764Z,51.40
2023-07-18T11:59:04.164Z,51.70
2023-07-18T12:01:37.273Z,51.50
2023-07-18T12:04:13.115Z,51.80
2023-07-18T12:06:40.249Z,51.40
2023-07-18T12:09:07.083Z,51.50
2023-07-18T12:11:35.013Z,51.00
2023-07-18T12:14:03.605Z,51.30
2023-07-18T12:16:30.439Z,52.10
2023-07-18T12:18:57.291Z,51.00
2023-07-18T12:21:24.134Z,51.90
2023-07-18T12:23:50.945Z,51.20
2023-07-18T12:26:17.958Z,52.00
2023-07-18T12:28:45.371Z,51.00
2023-07-18T12:31:13.005Z,50.60
2023-07-18T12:33:40.078Z,50.70
2023-07-18T12:36:06.966Z,50.50
2023-07-18T12:38:33.813Z,50.60
2023-07-18T12:41:00.670Z,50.40
2023-07-18T12:43:27.724Z,51.20
2023-07-18T12:45:55.497Z,51.40
2023-07-18T12:48:22.345Z,50.70
2023-07-18T12:50:49.242Z,51.40
2023-07-18T12:53:16.029Z,50.00
2023-07-18T12:55:42.803Z,50.90
2023-07-18T12:58:09.545Z,51.10
2023-07-18T13:00:36.297Z,51.10
2023-07-18T13:03:03.280Z,51.00
2023-07-18T13:05:30.356Z,51.10
2023-07-18T13:07:57.146Z,50.80
2023-07-18T13:10:24.076Z,50.80
2023-07-18T13:12:50.800Z,51.10
2023-07-18T13:15:18.818Z,50.80
2023-07-18T13:17:46.880Z,50.80
2023-07-18T13:20:13.735Z,50.50
2023-07-18T13:22:40.552Z,50.60
2023-07-18T13:25:07.755Z,50.60
2023-07-18T13:27:34.528Z,50.70
2023-07-18T13:30:01.280Z,50.50
2023-07-18T13:32:28.246Z,50.80
2023-07-18T13:34:55.098Z,50.50
2023-07-18T13:37:21.838Z,50.50
2023-07-18T13:39:49.893Z,50.20
2023-07-18T13:42:16.788Z,50.10
2023-07-18T13:44:43.540Z,50.20
2023-07-18T13:47:10.433Z,50.10
2023-07-18T13:49:49.871Z,50.20
2023-07-18T13:52:17.341Z,49.90
2023-07-18T13:54:44.069Z,49.50
2023-07-18T13:57:10.911Z,49.80
2023-07-18T13:59:37.763Z,49.40
2023-07-18T14:02:05.038Z,49.50
2023-07-18T14:04:32.001Z,49.40
2023-07-18T14:06:59.251Z,49.10
2023-07-18T14:09:26.136Z,50.00
2023-07-18T14:11:53.145Z,48.40
2023-07-18T14:14:19.919Z,49.40
2023-07-18T14:16:46.850Z,48.90
2023-07-18T14:19:13.624Z,48.50
2023-07-18T14:21:40.708Z,49.40
2023-07-18T14:24:07.698Z,47.90
2023-07-18T14:26:34.495Z,49.10
2023-07-18T14:29:01.700Z,48.80
2023-07-18T14:31:28.568Z,49.10
2023-07-18T14:34:05.391Z,49.00
2023-07-18T14:36:34.250Z,48.90
2023-07-18T14:39:01.147Z,48.80
2023-07-18T14:41:28.153Z,48.70
2023-07-18T14:43:54.976Z,48.60
2023-07-18T14:46:23.290Z,48.50
2023-07-18T14:48:51.034Z,47.90
2023-07-18T14:51:18.138Z,47.60
2023-07-18T14:53:44.982Z,48.20
2023-07-18T14:56:11.861Z,47.80
2023-07-18T14:58:38.676Z,47.20
2023-07-18T15:01:07.441Z,47.20
2023-07-18T15:03:35.235Z,48.30
2023-07-18T15:06:05.911Z,48.40
2023-07-18T15:08:34.098Z,48.40
2023-07-18T15:11:01.096Z,47.70
2023-07-18T15:13:28.010Z,47.50
2023-07-18T15:15:55.160Z,47.50
2023-07-18T15:18:21.971Z,48.60
2023-07-18T15:20:48.851Z,49.00
2023-07-18T15:23:15.877Z,47.80
2023-07-18T15:25:43.358Z,48.00
2023-07-18T15:28:14.480Z,48.00
2023-07-18T15:30:42.232Z,48.40
2023-07-18T15:33:24.978Z,48.20
2023-07-18T15:35:53.175Z,48.00
2023-07-18T15:38:19.971Z,48.20
2023-07-18T15:40:47.699Z,48.20
2023-07-18T15:43:14.763Z,48.20
2023-07-18T15:45:41.729Z,46.80
2023-07-18T16:09:49.874Z,46.70
2023-07-18T16:12:16.843Z,48.00
2023-07-18T16:14:43.965Z,47.80
2023-07-18T16:17:11.023Z,47.20
2023-07-18T16:19:38.426Z,46.90
2023-07-18T16:22:06.065Z,47.50
2023-07-18T16:24:33.234Z,47.70
2023-07-18T16:27:00.349Z,47.10
2023-07-18T16:29:27.669Z,47.80
2023-07-18T16:31:54.676Z,47.50
2023-07-18T16:34:21.485Z,47.60
2023-07-18T16:36:48.740Z,47.70
2023-07-18T16:39:15.501Z,47.70
2023-07-18T16:41:42.526Z,47.80
2023-07-18T16:44:10.927Z,48.00
2023-07-18T16:46:37.910Z,47.50
2023-07-18T16:49:05.114Z,47.70
2023-07-18T16:51:31.903Z,47.80
2023-07-18T16:53:58.684Z,47.60
2023-07-18T16:56:25.542Z,47.70
2023-07-18T16:58:52.367Z,47.70
2023-07-18T17:01:20.628Z,47.80
2023-07-18T17:03:47.520Z,47.60
2023-07-18T17:06:14.689Z,47.40
2023-07-18T17:08:41.825Z,47.80
2023-07-18T17:11:08.683Z,47.60
2023-07-18T17:13:35.544Z,47.60
2023-07-18T17:16:02.288Z,47.60
2023-07-18T17:18:29.064Z,47.30
2023-07-18T17:20:55.943Z,47.50
2023-07-18T17:23:22.794Z,47.80
2023-07-18T17:25:51.168Z,47.90
2023-07-18T17:28:17.914Z,47.90
2023-07-18T17:30:44.771Z,47.70
2023-07-18T17:33:11.617Z,47.80
2023-07-18T17:35:39.678Z,48.00
2023-07-18T17:38:06.663Z,47.40
2023-07-18T17:40:33.535Z,47.70
2023-07-18T17:43:03.350Z,47.80
2023-07-18T17:45:30.291Z,47.80
2023-07-18T17:47:59.160Z,48.10
2023-07-18T17:50:26.301Z,48.10
2023-07-18T17:52:53.113Z,48.50
2023-07-18T17:55:19.880Z,48.40
2023-07-18T17:57:46.587Z,48.40
2023-07-18T18:00:13.778Z,48.30
2023-07-18T18:02:40.719Z,48.30
2023-07-18T18:05:38.032Z,48.20
2023-07-18T18:08:06.329Z,48.40
2023-07-18T18:10:33.200Z,48.40
2023-07-18T18:13:00.117Z,48.40
2023-07-18T18:15:28.302Z,48.50
2023-07-18T18:17:55.510Z,48.70
2023-07-18T18:20:22.552Z,48.80
2023-07-18T18:22:49.494Z,48.90
2023-07-18T18:25:16.738Z,48.90
2023-07-18T18:27:45.030Z,49.00
2023-07-18T18:30:12.991Z,49.00
2023-07-18T18:32:39.946Z,49.30
2023-07-18T18:35:09.851Z,49.50
2023-07-18T18:37:38.109Z,49.50
2023-07-18T18:40:06.027Z,49.70
2023-07-18T18:42:34.552Z,49.60
2023-07-18T18:45:01.614Z,49.80
2023-07-18T18:47:28.609Z,50.00
2023-07-18T18:49:55.551Z,50.20
2023-07-18T18:52:22.422Z,50.30
2023-07-18T18:54:50.653Z,50.60
2023-07-18T18:57:18.453Z,50.90
2023-07-18T18:59:45.555Z,50.80
2023-07-18T19:02:15.232Z,51.30
2023-07-18T19:04:43.041Z,51.40
2023-07-18T19:07:09.752Z,51.70
2023-07-18T19:09:38.559Z,52.30
2023-07-18T19:12:07.182Z,52.90
2023-07-18T19:14:39.354Z,52.20
2023-07-18T19:17:07.058Z,52.30
2023-07-18T19:19:39.677Z,52.20
2023-07-18T19:22:08.207Z,52.70
2023-07-18T19:24:39.042Z,52.80
2023-07-18T19:27:11.312Z,53.20
2023-07-18T19:29:39.006Z,53.80
2023-07-18T19:32:09.638Z,53.30
2023-07-18T19:34:42.507Z,53.60
2023-07-18T19:37:09.855Z,53.80
2023-07-18T19:39:37.811Z,53.80
2023-07-18T19:42:05.784Z,54.10
2023-07-18T19:44:33.340Z,54.40
2023-07-18T19:47:00.140Z,55.20
2023-07-18T19:49:27.703Z,55.40
2023-07-18T19:51:55.087Z,55.80
2023-07-18T19:54:21.815Z,55.80
2023-07-18T19:56:48.596Z,56.20
2023-07-18T19:59:15.490Z,56.50
2023-07-18T20:01:43.647Z,57.20
2023-07-18T20:04:12.949Z,56.60
2023-07-18T20:06:39.966Z,57.10
2023-07-18T20:09:06.778Z,57.20
2023-07-18T20:11:33.941Z,57.70
2023-07-18T20:14:00.798Z,57.70
2023-07-18T20:16:27.675Z,57.50
2023-07-18T20:19:01.659Z,57.90
2023-07-18T20:21:30.049Z,58.50
2023-07-18T20:23:57.129Z,58.10
2023-07-18T20:26:24.122Z,58.80
2023-07-18T20:28:50.957Z,58.90
2023-07-18T20:31:18.003Z,59.10
2023-07-18T20:33:45.070Z,59.30
2023-07-18T20:36:11.875Z,59.20
2023-07-18T20:38:38.722Z,59.50
2023-07-18T20:41:09.517Z,59.80
2023-07-18T20:43:36.971Z,60.10
2023-07-18T20:46:04.914Z,60.10
2023-07-18T20:48:35.029Z,60.50
2023-07-18T20:51:01.787Z,60.50
2023-07-18T20:53:30.377Z,60.60
2023-07-18T20:55:57.430Z,60.40
2023-07-18T20:58:24.676Z,60.60
2023-07-18T21:00:51.841Z,60.50
2023-07-18T21:03:18.861Z,60.20
2023-07-18T21:05:49.870Z,60.60
2023-07-18T21:08:18.202Z,60.70
2023-07-18T21:10:45.173Z,60.80
2023-07-18T21:13:12.137Z,60.30
2023-07-18T21:15:39.323Z,60.50
2023-07-18T21:18:06.283Z,61.00
2023-07-18T21:20:33.134Z,61.30
2023-07-18T21:23:00.945Z,61.40
2023-07-18T21:25:28.532Z,61.70
2023-07-18T21:27:55.481Z,61.90
2023-07-18T21:30:22.423Z,62.10
2023-07-18T21:32:49.393Z,62.20
2023-07-18T21:35:16.274Z,62.20
2023-07-18T21:37:43.093Z,62.30
2023-07-18T21:40:10.368Z,62.50
2023-07-18T21:42:37.188Z,62.70
2023-07-18T21:45:04.399Z,63.10
2023-07-18T21:47:55.901Z,62.60
2023-07-18T21:50:23.022Z,62.50
2023-07-18T21:52:49.996Z,62.40
2023-07-18T21:55:16.962Z,62.40
2023-07-18T21:57:44.532Z,62.70
2023-07-18T22:00:11.793Z,62.80
2023-07-18T22:02:38.845Z,62.30
2023-07-18T22:05:05.986Z,62.40
2023-07-18T22:07:33.193Z,61.70
2023-07-18T22:10:04.255Z,62.00
2023-07-18T22:12:31.213Z,62.10
2023-07-18T22:14:58.098Z,62.30
2023-07-18T22:17:25.126Z,61.80
2023-07-18T22:19:51.958Z,61.50
2023-07-18T22:22:19.425Z,61.80
2023-07-18T22:24:46.257Z,61.90
2023-07-18T22:27:13.073Z,62.00
2023-07-18T22:29:40.150Z,62.30
2023-07-18T22:32:09.380Z,62.60
2023-07-18T22:34:36.557Z,62.60
2023-07-18T22:37:03.454Z,62.20
2023-07-18T22:39:36.421Z,62.50
2023-07-18T22:42:17.933Z,62.80
2023-07-18T22:44:46.370Z,62.90
2023-07-18T22:47:13.792Z,63.20
2023-07-18T22:49:41.458Z,63.70
2023-07-18T22:52:09.456Z,63.60
2023-07-18T22:54:40.010Z,63.70
2023-07-18T22:57:07.462Z,63.70
2023-07-18T22:59:34.407Z,63.50
2023-07-18T23:02:01.237Z,63.80
2023-07-18T23:04:29.316Z,64.10
2023-07-18T23:06:56.569Z,64.00
2023-07-18T23:09:23.571Z,64.00
2023-07-18T23:11:52.757Z,63.90
2023-07-18T23:14:20.623Z,63.90
2023-07-18T23:16:47.880Z,64.40
2023-07-18T23:19:14.831Z,64.40
2023-07-18T23:21:41.596Z,64.20
2023-07-18T23:24:08.544Z,64.30
2023-07-18T23:26:35.323Z,64.40
2023-07-18T23:29:03.601Z,64.10
2023-07-18T23:31:30.487Z,64.00
2023-07-18T23:33:57.320Z,64.70
2023-07-18T23:36:24.212Z,63.90
2023-07-18T23:38:51.018Z,64.40
2023-07-18T23:41:18.054Z,64.70
2023-07-18T23:43:44.973Z,65.50
2023-07-18T23:46:11.949Z,65.50
2023-07-18T23:48:38.879Z,65.10
2023-07-18T23:51:05.674Z,65.20
2023-07-18T23:53:32.447Z,65.10
2023-07-18T23:55:59.201Z,65.40
2023-07-18T23:58:25.963Z,65.70
